sensor_id;sensor_type;location;lat;lon;timestamp;P1;durP1;ratioP1;P2;durP2;ratioP2
20976;SDS011;10647;51.016;3.720;2022-08-19T00:00:51;67.72;;;37.78;;
20976;SDS011;10647;51.016;3.720;2022-08-19T00:03:19;66.17;;;38.38;;
20976;SDS011;10647;51.016;3.720;2022-08-19T00:05:46;63.90;;;36.90;;
20976;SDS011;10647;51.016;3.720;2022-08-19T00:08:14;69.03;;;39.03;;
20976;SDS011;10647;51.016;3.720;2022-08-19T00:10:41;68.70;;;38.28;;
20976;SDS011;10647;51.016;3.720;2022-08-19T00:13:09;67.03;;;38.08;;
20976;SDS011;10647;51.016;3.720;2022-08-19T00:15:36;68.75;;;37.73;;
20976;SDS011;10647;51.016;3.720;2022-08-19T00:18:04;69.25;;;39.05;;
20976;SDS011;10647;51.016;3.720;2022-08-19T00:20:31;68.95;;;38.88;;
20976;SDS011;10647;51.016;3.720;2022-08-19T00:22:59;65.00;;;38.28;;
20976;SDS011;10647;51.016;3.720;2022-08-19T00:25:26;64.55;;;37.05;;
20976;SDS011;10647;51.016;3.720;2022-08-19T00:27:54;63.75;;;36.50;;
20976;SDS011;10647;51.016;3.720;2022-08-19T00:30:21;58.98;;;35.78;;
20976;SDS011;10647;51.016;3.720;2022-08-19T00:32:49;58.02;;;34.10;;
20976;SDS011;10647;51.016;3.720;2022-08-19T00:35:17;63.33;;;34.65;;
20976;SDS011;10647;51.016;3.720;2022-08-19T00:37:44;56.40;;;34.83;;
20976;SDS011;10647;51.016;3.720;2022-08-19T00:40:14;62.73;;;32.25;;
20976;SDS011;10647;51.016;3.720;2022-08-19T00:42:44;48.75;;;30.60;;
20976;SDS011;10647;51.016;3.720;2022-08-19T00:45:14;51.75;;;29.98;;
20976;SDS011;10647;51.016;3.720;2022-08-19T00:47:43;49.90;;;29.52;;
20976;SDS011;10647;51.016;3.720;2022-08-19T00:50:13;47.65;;;28.73;;
20976;SDS011;10647;51.016;3.720;2022-08-19T00:52:42;49.40;;;29.37;;
20976;SDS011;10647;51.016;3.720;2022-08-19T00:55:14;44.75;;;28.75;;
20976;SDS011;10647;51.016;3.720;2022-08-19T00:57:47;45.10;;;28.25;;
20976;SDS011;10647;51.016;3.720;2022-08-19T01:00:17;46.35;;;28.10;;
20976;SDS011;10647;51.016;3.720;2022-08-19T01:02:45;48.87;;;29.72;;
20976;SDS011;10647;51.016;3.720;2022-08-19T01:05:14;49.50;;;28.87;;
20976;SDS011;10647;51.016;3.720;2022-08-19T01:07:44;46.05;;;28.87;;
20976;SDS011;10647;51.016;3.720;2022-08-19T01:10:14;46.70;;;28.07;;
20976;SDS011;10647;51.016;3.720;2022-08-19T01:12:44;45.63;;;27.48;;
20976;SDS011;10647;51.016;3.720;2022-08-19T01:15:14;41.50;;;25.45;;
20976;SDS011;10647;51.016;3.720;2022-08-19T01:17:43;40.05;;;25.12;;
20976;SDS011;10647;51.016;3.720;2022-08-19T01:20:13;42.33;;;25.23;;
20976;SDS011;10647;51.016;3.720;2022-08-19T01:22:46;40.50;;;23.50;;
20976;SDS011;10647;51.016;3.720;2022-08-19T01:25:17;40.33;;;23.40;;
20976;SDS011;10647;51.016;3.720;2022-08-19T01:27:48;43.25;;;23.57;;
20976;SDS011;10647;51.016;3.720;2022-08-19T01:30:18;40.15;;;23.75;;
20976;SDS011;10647;51.016;3.720;2022-08-19T01:33:10;40.45;;;23.73;;
20976;SDS011;10647;51.016;3.720;2022-08-19T01:35:38;40.00;;;23.10;;
20976;SDS011;10647;51.016;3.720;2022-08-19T01:38:08;37.63;;;22.58;;
20976;SDS011;10647;51.016;3.720;2022-08-19T01:40:39;38.75;;;22.50;;
20976;SDS011;10647;51.016;3.720;2022-08-19T01:43:07;42.70;;;21.45;;
20976;SDS011;10647;51.016;3.720;2022-08-19T01:45:36;42.38;;;22.62;;
20976;SDS011;10647;51.016;3.720;2022-08-19T01:48:06;41.42;;;22.73;;
20976;SDS011;10647;51.016;3.720;2022-08-19T01:50:34;41.68;;;22.10;;
20976;SDS011;10647;51.016;3.720;2022-08-19T01:53:04;43.65;;;21.97;;
20976;SDS011;10647;51.016;3.720;2022-08-19T01:55:34;38.42;;;21.73;;
20976;SDS011;10647;51.016;3.720;2022-08-19T01:58:04;40.67;;;21.62;;
20976;SDS011;10647;51.016;3.720;2022-08-19T02:00:34;40.70;;;22.10;;
20976;SDS011;10647;51.016;3.720;2022-08-19T02:03:01;37.73;;;21.52;;
20976;SDS011;10647;51.016;3.720;2022-08-19T02:05:29;42.93;;;22.73;;
20976;SDS011;10647;51.016;3.720;2022-08-19T02:07:57;47.50;;;22.20;;
20976;SDS011;10647;51.016;3.720;2022-08-19T02:10:25;37.48;;;22.07;;
20976;SDS011;10647;51.016;3.720;2022-08-19T02:12:52;39.83;;;21.82;;
20976;SDS011;10647;51.016;3.720;2022-08-19T02:15:21;41.40;;;22.02;;
20976;SDS011;10647;51.016;3.720;2022-08-19T02:17:48;42.00;;;23.02;;
20976;SDS011;10647;51.016;3.720;2022-08-19T02:20:16;46.53;;;23.80;;
20976;SDS011;10647;51.016;3.720;2022-08-19T02:22:43;42.60;;;23.45;;
20976;SDS011;10647;51.016;3.720;2022-08-19T02:27:37;45.75;;;23.25;;
20976;SDS011;10647;51.016;3.720;2022-08-19T02:30:07;47.90;;;23.20;;
20976;SDS011;10647;51.016;3.720;2022-08-19T02:32:36;44.63;;;25.20;;
20976;SDS011;10647;51.016;3.720;2022-08-19T02:35:05;45.38;;;23.20;;
20976;SDS011;10647;51.016;3.720;2022-08-19T02:37:33;45.13;;;24.40;;
20976;SDS011;10647;51.016;3.720;2022-08-19T02:40:19;47.60;;;24.45;;
20976;SDS011;10647;51.016;3.720;2022-08-19T02:42:47;44.37;;;24.77;;
20976;SDS011;10647;51.016;3.720;2022-08-19T02:45:14;45.73;;;24.95;;
20976;SDS011;10647;51.016;3.720;2022-08-19T02:47:42;45.30;;;24.90;;
20976;SDS011;10647;51.016;3.720;2022-08-19T02:50:09;48.40;;;24.23;;
20976;SDS011;10647;51.016;3.720;2022-08-19T02:52:37;43.83;;;24.83;;
20976;SDS011;10647;51.016;3.720;2022-08-19T02:55:04;45.60;;;23.23;;
20976;SDS011;10647;51.016;3.720;2022-08-19T02:57:32;46.90;;;24.00;;
20976;SDS011;10647;51.016;3.720;2022-08-19T03:00:03;46.47;;;23.77;;
20976;SDS011;10647;51.016;3.720;2022-08-19T03:02:31;46.00;;;24.35;;
20976;SDS011;10647;51.016;3.720;2022-08-19T03:04:59;40.47;;;22.43;;
20976;SDS011;10647;51.016;3.720;2022-08-19T03:07:27;43.55;;;22.22;;
20976;SDS011;10647;51.016;3.720;2022-08-19T03:09:54;41.70;;;22.50;;
20976;SDS011;10647;51.016;3.720;2022-08-19T03:12:22;49.42;;;22.58;;
20976;SDS011;10647;51.016;3.720;2022-08-19T03:14:49;40.13;;;21.80;;
20976;SDS011;10647;51.016;3.720;2022-08-19T03:17:18;38.13;;;21.77;;
20976;SDS011;10647;51.016;3.720;2022-08-19T03:19:46;43.40;;;23.20;;
20976;SDS011;10647;51.016;3.720;2022-08-19T03:22:14;37.60;;;20.70;;
20976;SDS011;10647;51.016;3.720;2022-08-19T03:24:41;44.00;;;21.70;;
20976;SDS011;10647;51.016;3.720;2022-08-19T03:27:09;40.80;;;20.23;;
20976;SDS011;10647;51.016;3.720;2022-08-19T03:29:37;39.18;;;21.25;;
20976;SDS011;10647;51.016;3.720;2022-08-19T03:32:05;36.50;;;20.60;;
20976;SDS011;10647;51.016;3.720;2022-08-19T03:34:34;35.47;;;19.53;;
20976;SDS011;10647;51.016;3.720;2022-08-19T03:37:05;36.17;;;19.90;;
20976;SDS011;10647;51.016;3.720;2022-08-19T03:39:35;42.03;;;19.67;;
20976;SDS011;10647;51.016;3.720;2022-08-19T03:42:03;34.08;;;20.20;;
20976;SDS011;10647;51.016;3.720;2022-08-19T03:44:31;34.45;;;18.73;;
20976;SDS011;10647;51.016;3.720;2022-08-19T03:46:59;28.30;;;17.75;;
20976;SDS011;10647;51.016;3.720;2022-08-19T03:49:27;37.08;;;18.65;;
20976;SDS011;10647;51.016;3.720;2022-08-19T03:51:58;34.45;;;18.17;;
20976;SDS011;10647;51.016;3.720;2022-08-19T03:54:31;33.65;;;18.82;;
20976;SDS011;10647;51.016;3.720;2022-08-19T03:56:58;38.40;;;19.30;;
20976;SDS011;10647;51.016;3.720;2022-08-19T03:59:28;36.97;;;18.13;;
20976;SDS011;10647;51.016;3.720;2022-08-19T04:01:58;33.40;;;18.35;;
20976;SDS011;10647;51.016;3.720;2022-08-19T04:04:27;34.08;;;17.95;;
20976;SDS011;10647;51.016;3.720;2022-08-19T04:06:55;38.93;;;18.53;;
20976;SDS011;10647;51.016;3.720;2022-08-19T04:09:23;41.90;;;18.67;;
20976;SDS011;10647;51.016;3.720;2022-08-19T04:11:52;35.10;;;18.20;;
20976;SDS011;10647;51.016;3.720;2022-08-19T04:14:22;36.00;;;18.13;;
20976;SDS011;10647;51.016;3.720;2022-08-19T04:16:51;33.85;;;17.85;;
20976;SDS011;10647;51.016;3.720;2022-08-19T04:19:19;34.23;;;18.77;;
20976;SDS011;10647;51.016;3.720;2022-08-19T04:21:49;37.45;;;17.70;;
20976;SDS011;10647;51.016;3.720;2022-08-19T04:24:18;36.80;;;19.10;;
20976;SDS011;10647;51.016;3.720;2022-08-19T04:26:48;35.35;;;18.32;;
20976;SDS011;10647;51.016;3.720;2022-08-19T04:29:18;34.60;;;18.57;;
20976;SDS011;10647;51.016;3.720;2022-08-19T04:31:47;37.55;;;17.75;;
20976;SDS011;10647;51.016;3.720;2022-08-19T04:34:17;38.20;;;17.50;;
20976;SDS011;10647;51.016;3.720;2022-08-19T04:36:49;29.20;;;17.37;;
20976;SDS011;10647;51.016;3.720;2022-08-19T04:39:24;30.20;;;17.17;;
20976;SDS011;10647;51.016;3.720;2022-08-19T04:41:51;33.18;;;17.62;;
20976;SDS011;10647;51.016;3.720;2022-08-19T04:44:37;32.47;;;17.10;;
20976;SDS011;10647;51.016;3.720;2022-08-19T04:47:04;33.53;;;17.47;;
20976;SDS011;10647;51.016;3.720;2022-08-19T04:49:32;30.00;;;16.33;;
20976;SDS011;10647;51.016;3.720;2022-08-19T04:51:59;29.70;;;16.53;;
20976;SDS011;10647;51.016;3.720;2022-08-19T04:54:27;29.73;;;16.27;;
20976;SDS011;10647;51.016;3.720;2022-08-19T04:56:54;31.03;;;15.67;;
20976;SDS011;10647;51.016;3.720;2022-08-19T04:59:22;29.40;;;15.73;;
20976;SDS011;10647;51.016;3.720;2022-08-19T05:01:50;35.47;;;16.80;;
20976;SDS011;10647;51.016;3.720;2022-08-19T05:04:18;30.82;;;16.05;;
20976;SDS011;10647;51.016;3.720;2022-08-19T05:06:47;27.10;;;15.40;;
20976;SDS011;10647;51.016;3.720;2022-08-19T05:09:20;27.65;;;15.90;;
20976;SDS011;10647;51.016;3.720;2022-08-19T05:11:48;29.47;;;14.67;;
20976;SDS011;10647;51.016;3.720;2022-08-19T05:14:20;28.30;;;14.93;;
20976;SDS011;10647;51.016;3.720;2022-08-19T05:16:47;28.95;;;15.63;;
20976;SDS011;10647;51.016;3.720;2022-08-19T05:19:15;27.75;;;14.40;;
20976;SDS011;10647;51.016;3.720;2022-08-19T05:22:00;32.15;;;15.08;;
20976;SDS011;10647;51.016;3.720;2022-08-19T05:24:46;26.05;;;13.72;;
20976;SDS011;10647;51.016;3.720;2022-08-19T05:27:14;24.87;;;13.70;;
20976;SDS011;10647;51.016;3.720;2022-08-19T05:29:48;23.45;;;13.08;;
20976;SDS011;10647;51.016;3.720;2022-08-19T05:32:18;25.20;;;13.15;;
20976;SDS011;10647;51.016;3.720;2022-08-19T05:34:47;23.55;;;12.82;;
20976;SDS011;10647;51.016;3.720;2022-08-19T05:37:14;24.72;;;13.03;;
20976;SDS011;10647;51.016;3.720;2022-08-19T05:39:42;26.10;;;12.98;;
20976;SDS011;10647;51.016;3.720;2022-08-19T05:42:10;25.68;;;12.00;;
20976;SDS011;10647;51.016;3.720;2022-08-19T05:44:39;27.05;;;12.43;;
20976;SDS011;10647;51.016;3.720;2022-08-19T05:47:13;24.45;;;13.00;;
20976;SDS011;10647;51.016;3.720;2022-08-19T05:49:41;27.55;;;12.40;;
20976;SDS011;10647;51.016;3.720;2022-08-19T05:52:11;24.37;;;12.20;;
20976;SDS011;10647;51.016;3.720;2022-08-19T05:54:41;24.35;;;12.53;;
20976;SDS011;10647;51.016;3.720;2022-08-19T05:57:10;20.65;;;12.03;;
20976;SDS011;10647;51.016;3.720;2022-08-19T05:59:38;22.98;;;12.13;;
20976;SDS011;10647;51.016;3.720;2022-08-19T06:02:06;25.48;;;12.35;;
20976;SDS011;10647;51.016;3.720;2022-08-19T06:04:33;24.10;;;11.80;;
20976;SDS011;10647;51.016;3.720;2022-08-19T06:07:01;24.90;;;12.33;;
20976;SDS011;10647;51.016;3.720;2022-08-19T06:09:29;28.17;;;12.13;;
20976;SDS011;10647;51.016;3.720;2022-08-19T06:11:57;21.07;;;10.95;;
20976;SDS011;10647;51.016;3.720;2022-08-19T06:14:29;20.95;;;11.80;;
20976;SDS011;10647;51.016;3.720;2022-08-19T06:16:57;24.52;;;11.88;;
20976;SDS011;10647;51.016;3.720;2022-08-19T06:19:27;24.18;;;11.63;;
20976;SDS011;10647;51.016;3.720;2022-08-19T06:21:57;21.97;;;11.63;;
20976;SDS011;10647;51.016;3.720;2022-08-19T06:24:27;24.55;;;11.80;;
20976;SDS011;10647;51.016;3.720;2022-08-19T06:26:57;21.97;;;11.43;;
20976;SDS011;10647;51.016;3.720;2022-08-19T06:29:27;22.13;;;11.53;;
20976;SDS011;10647;51.016;3.720;2022-08-19T06:31:56;24.32;;;11.45;;
20976;SDS011;10647;51.016;3.720;2022-08-19T06:34:26;19.90;;;11.30;;
20976;SDS011;10647;51.016;3.720;2022-08-19T06:36:56;24.92;;;11.68;;
20976;SDS011;10647;51.016;3.720;2022-08-19T06:39:27;21.12;;;11.28;;
20976;SDS011;10647;51.016;3.720;2022-08-19T06:42:00;20.00;;;10.72;;
20976;SDS011;10647;51.016;3.720;2022-08-19T06:44:29;18.82;;;11.22;;
20976;SDS011;10647;51.016;3.720;2022-08-19T06:47:01;17.60;;;9.63;;
20976;SDS011;10647;51.016;3.720;2022-08-19T06:49:33;22.30;;;11.03;;
20976;SDS011;10647;51.016;3.720;2022-08-19T06:52:01;20.40;;;10.20;;
20976;SDS011;10647;51.016;3.720;2022-08-19T06:54:30;15.05;;;9.30;;
20976;SDS011;10647;51.016;3.720;2022-08-19T06:56:58;16.40;;;10.23;;
20976;SDS011;10647;51.016;3.720;2022-08-19T06:59:30;16.93;;;9.58;;
20976;SDS011;10647;51.016;3.720;2022-08-19T07:02:00;16.25;;;9.18;;
20976;SDS011;10647;51.016;3.720;2022-08-19T07:04:31;19.82;;;9.68;;
20976;SDS011;10647;51.016;3.720;2022-08-19T07:07:01;16.10;;;8.95;;
20976;SDS011;10647;51.016;3.720;2022-08-19T07:09:32;14.13;;;9.35;;
20976;SDS011;10647;51.016;3.720;2022-08-19T07:12:03;18.55;;;9.28;;
20976;SDS011;10647;51.016;3.720;2022-08-19T07:14:33;20.43;;;9.05;;
20976;SDS011;10647;51.016;3.720;2022-08-19T07:17:10;14.73;;;8.13;;
20976;SDS011;10647;51.016;3.720;2022-08-19T07:19:37;15.15;;;8.18;;
20976;SDS011;10647;51.016;3.720;2022-08-19T07:22:06;16.57;;;9.43;;
20976;SDS011;10647;51.016;3.720;2022-08-19T07:24:34;15.90;;;8.93;;
20976;SDS011;10647;51.016;3.720;2022-08-19T07:27:04;16.20;;;8.70;;
20976;SDS011;10647;51.016;3.720;2022-08-19T07:29:33;14.73;;;8.88;;
20976;SDS011;10647;51.016;3.720;2022-08-19T07:32:03;15.38;;;7.50;;
20976;SDS011;10647;51.016;3.720;2022-08-19T07:34:31;15.00;;;8.83;;
20976;SDS011;10647;51.016;3.720;2022-08-19T07:37:01;13.95;;;8.60;;
20976;SDS011;10647;51.016;3.720;2022-08-19T07:39:32;13.43;;;8.40;;
20976;SDS011;10647;51.016;3.720;2022-08-19T07:42:02;16.85;;;8.83;;
20976;SDS011;10647;51.016;3.720;2022-08-19T07:44:33;19.48;;;8.35;;
20976;SDS011;10647;51.016;3.720;2022-08-19T07:47:01;16.48;;;8.35;;
20976;SDS011;10647;51.016;3.720;2022-08-19T07:49:29;16.60;;;7.83;;
20976;SDS011;10647;51.016;3.720;2022-08-19T07:52:01;15.38;;;8.15;;
20976;SDS011;10647;51.016;3.720;2022-08-19T07:54:31;15.63;;;8.48;;
20976;SDS011;10647;51.016;3.720;2022-08-19T07:57:01;14.28;;;7.42;;
20976;SDS011;10647;51.016;3.720;2022-08-19T07:59:29;15.45;;;8.20;;
20976;SDS011;10647;51.016;3.720;2022-08-19T08:01:58;14.00;;;7.92;;
20976;SDS011;10647;51.016;3.720;2022-08-19T08:04:26;16.02;;;7.75;;
20976;SDS011;10647;51.016;3.720;2022-08-19T08:07:12;13.28;;;7.80;;
20976;SDS011;10647;51.016;3.720;2022-08-19T08:09:58;16.93;;;8.10;;
20976;SDS011;10647;51.016;3.720;2022-08-19T08:12:34;13.30;;;7.70;;
20976;SDS011;10647;51.016;3.720;2022-08-19T08:15:06;15.00;;;8.38;;
20976;SDS011;10647;51.016;3.720;2022-08-19T08:17:35;14.47;;;8.00;;
20976;SDS011;10647;51.016;3.720;2022-08-19T08:20:04;18.07;;;8.50;;
20976;SDS011;10647;51.016;3.720;2022-08-19T08:22:33;14.85;;;8.18;;
20976;SDS011;10647;51.016;3.720;2022-08-19T08:25:23;13.40;;;8.13;;
20976;SDS011;10647;51.016;3.720;2022-08-19T08:27:56;15.28;;;9.15;;
20976;SDS011;10647;51.016;3.720;2022-08-19T08:30:26;14.58;;;7.78;;
20976;SDS011;10647;51.016;3.720;2022-08-19T08:32:55;14.15;;;7.67;;
20976;SDS011;10647;51.016;3.720;2022-08-19T08:35:24;17.32;;;8.28;;
20976;SDS011;10647;51.016;3.720;2022-08-19T08:37:52;12.95;;;7.90;;
20976;SDS011;10647;51.016;3.720;2022-08-19T08:42:57;15.60;;;8.10;;
20976;SDS011;10647;51.016;3.720;2022-08-19T08:45:28;15.38;;;7.90;;
20976;SDS011;10647;51.016;3.720;2022-08-19T08:47:57;14.75;;;8.15;;
20976;SDS011;10647;51.016;3.720;2022-08-19T08:50:39;13.53;;;8.18;;
20976;SDS011;10647;51.016;3.720;2022-08-19T08:53:04;18.50;;;8.75;;
20976;SDS011;10647;51.016;3.720;2022-08-19T08:55:34;16.27;;;8.83;;
20976;SDS011;10647;51.016;3.720;2022-08-19T08:58:06;15.23;;;8.45;;
20976;SDS011;10647;51.016;3.720;2022-08-19T09:00:55;13.40;;;8.10;;
20976;SDS011;10647;51.016;3.720;2022-08-19T09:03:26;12.65;;;8.88;;
20976;SDS011;10647;51.016;3.720;2022-08-19T09:05:58;13.03;;;8.50;;
20976;SDS011;10647;51.016;3.720;2022-08-19T09:08:47;17.23;;;8.98;;
20976;SDS011;10647;51.016;3.720;2022-08-19T09:11:31;14.07;;;8.68;;
20976;SDS011;10647;51.016;3.720;2022-08-19T09:14:10;13.72;;;9.68;;
20976;SDS011;10647;51.016;3.720;2022-08-19T09:16:55;12.93;;;9.65;;
20976;SDS011;10647;51.016;3.720;2022-08-19T09:19:25;17.35;;;8.90;;
20976;SDS011;10647;51.016;3.720;2022-08-19T09:21:52;12.37;;;8.30;;
20976;SDS011;10647;51.016;3.720;2022-08-19T09:24:20;9.90;;;6.92;;
20976;SDS011;10647;51.016;3.720;2022-08-19T09:26:47;8.45;;;7.00;;
20976;SDS011;10647;51.016;3.720;2022-08-19T09:32:01;7.30;;;5.80;;
20976;SDS011;10647;51.016;3.720;2022-08-19T09:34:29;9.35;;;6.20;;
20976;SDS011;10647;51.016;3.720;2022-08-19T09:36:58;8.73;;;5.62;;
20976;SDS011;10647;51.016;3.720;2022-08-19T09:39:25;8.33;;;5.78;;
20976;SDS011;10647;51.016;3.720;2022-08-19T09:41:53;7.35;;;5.80;;
20976;SDS011;10647;51.016;3.720;2022-08-19T09:44:24;6.10;;;4.87;;
20976;SDS011;10647;51.016;3.720;2022-08-19T09:46:51;8.45;;;4.37;;
20976;SDS011;10647;51.016;3.720;2022-08-19T09:49:19;5.67;;;4.17;;
20976;SDS011;10647;51.016;3.720;2022-08-19T09:51:50;6.85;;;4.87;;
20976;SDS011;10647;51.016;3.720;2022-08-19T09:54:20;8.80;;;5.90;;
20976;SDS011;10647;51.016;3.720;2022-08-19T09:56:49;8.88;;;5.65;;
20976;SDS011;10647;51.016;3.720;2022-08-19T09:59:17;7.85;;;5.92;;
20976;SDS011;10647;51.016;3.720;2022-08-19T10:01:44;6.80;;;4.92;;
20976;SDS011;10647;51.016;3.720;2022-08-19T10:04:12;7.60;;;5.17;;
20976;SDS011;10647;51.016;3.720;2022-08-19T10:06:39;6.85;;;4.70;;
20976;SDS011;10647;51.016;3.720;2022-08-19T10:09:08;5.87;;;3.83;;
20976;SDS011;10647;51.016;3.720;2022-08-19T10:11:39;8.25;;;3.67;;
20976;SDS011;10647;51.016;3.720;2022-08-19T10:14:07;7.17;;;3.70;;
20976;SDS011;10647;51.016;3.720;2022-08-19T10:16:35;5.72;;;3.25;;
20976;SDS011;10647;51.016;3.720;2022-08-19T10:19:04;7.33;;;3.65;;
20976;SDS011;10647;51.016;3.720;2022-08-19T10:21:32;5.67;;;3.65;;
20976;SDS011;10647;51.016;3.720;2022-08-19T10:24:01;5.62;;;4.40;;
20976;SDS011;10647;51.016;3.720;2022-08-19T10:26:31;6.45;;;4.40;;
20976;SDS011;10647;51.016;3.720;2022-08-19T10:29:02;7.00;;;5.03;;
20976;SDS011;10647;51.016;3.720;2022-08-19T10:31:31;4.92;;;4.10;;
20976;SDS011;10647;51.016;3.720;2022-08-19T10:34:00;7.03;;;3.98;;
20976;SDS011;10647;51.016;3.720;2022-08-19T10:36:29;4.15;;;3.75;;
20976;SDS011;10647;51.016;3.720;2022-08-19T10:38:59;5.25;;;4.00;;
20976;SDS011;10647;51.016;3.720;2022-08-19T10:41:30;5.35;;;3.17;;
20976;SDS011;10647;51.016;3.720;2022-08-19T10:44:00;6.78;;;3.22;;
20976;SDS011;10647;51.016;3.720;2022-08-19T10:46:49;5.33;;;2.60;;
20976;SDS011;10647;51.016;3.720;2022-08-19T10:49:17;3.75;;;2.65;;
20976;SDS011;10647;51.016;3.720;2022-08-19T10:51:45;5.72;;;3.08;;
20976;SDS011;10647;51.016;3.720;2022-08-19T10:54:32;5.75;;;3.02;;
20976;SDS011;10647;51.016;3.720;2022-08-19T10:57:18;7.25;;;2.72;;
20976;SDS011;10647;51.016;3.720;2022-08-19T10:59:45;3.95;;;2.30;;
20976;SDS011;10647;51.016;3.720;2022-08-19T11:05:00;4.67;;;2.00;;
20976;SDS011;10647;51.016;3.720;2022-08-19T11:07:28;3.33;;;1.90;;
20976;SDS011;10647;51.016;3.720;2022-08-19T11:09:56;2.35;;;1.60;;
20976;SDS011;10647;51.016;3.720;2022-08-19T11:12:23;3.22;;;1.70;;
20976;SDS011;10647;51.016;3.720;2022-08-19T11:14:52;4.10;;;2.08;;
20976;SDS011;10647;51.016;3.720;2022-08-19T11:17:20;7.47;;;2.30;;
20976;SDS011;10647;51.016;3.720;2022-08-19T11:19:49;4.60;;;1.90;;
20976;SDS011;10647;51.016;3.720;2022-08-19T11:22:16;3.30;;;1.70;;
20976;SDS011;10647;51.016;3.720;2022-08-19T11:24:46;6.80;;;2.08;;
20976;SDS011;10647;51.016;3.720;2022-08-19T11:27:14;4.45;;;1.65;;
20976;SDS011;10647;51.016;3.720;2022-08-19T11:29:41;3.70;;;1.60;;
20976;SDS011;10647;51.016;3.720;2022-08-19T11:32:09;2.50;;;1.40;;
20976;SDS011;10647;51.016;3.720;2022-08-19T11:34:38;3.02;;;1.10;;
20976;SDS011;10647;51.016;3.720;2022-08-19T11:37:06;2.75;;;1.20;;
20976;SDS011;10647;51.016;3.720;2022-08-19T11:39:34;5.97;;;1.12;;
20976;SDS011;10647;51.016;3.720;2022-08-19T11:42:03;4.70;;;1.05;;
20976;SDS011;10647;51.016;3.720;2022-08-19T11:44:34;3.17;;;1.20;;
20976;SDS011;10647;51.016;3.720;2022-08-19T11:47:01;2.85;;;1.20;;
20976;SDS011;10647;51.016;3.720;2022-08-19T11:49:29;3.85;;;0.85;;
20976;SDS011;10647;51.016;3.720;2022-08-19T11:51:56;4.70;;;1.10;;
20976;SDS011;10647;51.016;3.720;2022-08-19T11:54:24;1.27;;;0.53;;
20976;SDS011;10647;51.016;3.720;2022-08-19T11:56:51;5.03;;;1.02;;
20976;SDS011;10647;51.016;3.720;2022-08-19T11:59:19;2.17;;;1.37;;
20976;SDS011;10647;51.016;3.720;2022-08-19T12:01:46;3.72;;;1.00;;
20976;SDS011;10647;51.016;3.720;2022-08-19T12:04:14;2.35;;;1.00;;
20976;SDS011;10647;51.016;3.720;2022-08-19T12:06:41;4.28;;;1.47;;
20976;SDS011;10647;51.016;3.720;2022-08-19T12:09:09;1.95;;;1.10;;
20976;SDS011;10647;51.016;3.720;2022-08-19T12:11:37;6.78;;;1.77;;
20976;SDS011;10647;51.016;3.720;2022-08-19T12:14:06;4.60;;;1.77;;
20976;SDS011;10647;51.016;3.720;2022-08-19T12:16:35;3.80;;;1.65;;
20976;SDS011;10647;51.016;3.720;2022-08-19T12:19:04;4.62;;;1.70;;
20976;SDS011;10647;51.016;3.720;2022-08-19T12:21:33;4.97;;;1.55;;
20976;SDS011;10647;51.016;3.720;2022-08-19T12:24:02;5.12;;;1.40;;
20976;SDS011;10647;51.016;3.720;2022-08-19T12:26:31;6.80;;;1.60;;
20976;SDS011;10647;51.016;3.720;2022-08-19T12:28:58;3.47;;;1.40;;
20976;SDS011;10647;51.016;3.720;2022-08-19T12:31:27;2.45;;;1.20;;
20976;SDS011;10647;51.016;3.720;2022-08-19T12:33:55;7.10;;;1.87;;
20976;SDS011;10647;51.016;3.720;2022-08-19T12:36:23;4.50;;;2.37;;
20976;SDS011;10647;51.016;3.720;2022-08-19T12:38:51;7.22;;;2.70;;
20976;SDS011;10647;51.016;3.720;2022-08-19T12:41:19;7.25;;;2.87;;
20976;SDS011;10647;51.016;3.720;2022-08-19T12:43:48;11.85;;;3.52;;
20976;SDS011;10647;51.016;3.720;2022-08-19T12:46:16;8.88;;;2.90;;
20976;SDS011;10647;51.016;3.720;2022-08-19T12:48:44;9.58;;;2.75;;
20976;SDS011;10647;51.016;3.720;2022-08-19T12:51:15;9.00;;;2.50;;
20976;SDS011;10647;51.016;3.720;2022-08-19T12:53:46;4.70;;;1.82;;
20976;SDS011;10647;51.016;3.720;2022-08-19T12:56:14;3.80;;;2.20;;
20976;SDS011;10647;51.016;3.720;2022-08-19T12:58:42;8.50;;;2.40;;
20976;SDS011;10647;51.016;3.720;2022-08-19T13:01:10;6.08;;;1.92;;
20976;SDS011;10647;51.016;3.720;2022-08-19T13:03:40;4.85;;;2.33;;
20976;SDS011;10647;51.016;3.720;2022-08-19T13:06:08;7.20;;;2.60;;
20976;SDS011;10647;51.016;3.720;2022-08-19T13:08:36;3.92;;;2.20;;
20976;SDS011;10647;51.016;3.720;2022-08-19T13:11:08;6.55;;;2.12;;
20976;SDS011;10647;51.016;3.720;2022-08-19T13:13:38;3.17;;;2.00;;
20976;SDS011;10647;51.016;3.720;2022-08-19T13:16:08;4.20;;;2.75;;
20976;SDS011;10647;51.016;3.720;2022-08-19T13:18:37;5.00;;;2.17;;
20976;SDS011;10647;51.016;3.720;2022-08-19T13:21:07;6.35;;;1.17;;
20976;SDS011;10647;51.016;3.720;2022-08-19T13:23:38;5.87;;;1.35;;
20976;SDS011;10647;51.016;3.720;2022-08-19T13:26:07;7.25;;;1.85;;
20976;SDS011;10647;51.016;3.720;2022-08-19T13:28:36;12.80;;;3.02;;
20976;SDS011;10647;51.016;3.720;2022-08-19T13:31:22;9.53;;;2.00;;
20976;SDS011;10647;51.016;3.720;2022-08-19T13:34:09;5.83;;;1.90;;
20976;SDS011;10647;51.016;3.720;2022-08-19T13:36:38;6.83;;;1.57;;
20976;SDS011;10647;51.016;3.720;2022-08-19T13:39:06;5.55;;;1.60;;
20976;SDS011;10647;51.016;3.720;2022-08-19T13:41:35;3.72;;;1.30;;
20976;SDS011;10647;51.016;3.720;2022-08-19T13:44:04;3.25;;;1.30;;
20976;SDS011;10647;51.016;3.720;2022-08-19T13:46:32;6.05;;;1.82;;
20976;SDS011;10647;51.016;3.720;2022-08-19T13:48:59;5.53;;;1.52;;
20976;SDS011;10647;51.016;3.720;2022-08-19T13:51:27;2.75;;;1.27;;
20976;SDS011;10647;51.016;3.720;2022-08-19T13:53:54;3.15;;;1.27;;
20976;SDS011;10647;51.016;3.720;2022-08-19T13:56:22;2.42;;;1.07;;
20976;SDS011;10647;51.016;3.720;2022-08-19T13:58:49;5.97;;;1.30;;
20976;SDS011;10647;51.016;3.720;2022-08-19T14:01:22;3.67;;;0.90;;
20976;SDS011;10647;51.016;3.720;2022-08-19T14:03:49;4.08;;;1.20;;
20976;SDS011;10647;51.016;3.720;2022-08-19T14:06:18;4.17;;;1.17;;
20976;SDS011;10647;51.016;3.720;2022-08-19T14:08:48;5.15;;;1.40;;
20976;SDS011;10647;51.016;3.720;2022-08-19T14:11:15;2.70;;;0.98;;
20976;SDS011;10647;51.016;3.720;2022-08-19T14:13:43;14.53;;;1.90;;
20976;SDS011;10647;51.016;3.720;2022-08-19T14:16:11;4.72;;;1.67;;
20976;SDS011;10647;51.016;3.720;2022-08-19T14:18:40;4.65;;;1.62;;
20976;SDS011;10647;51.016;3.720;2022-08-19T14:21:11;6.45;;;2.10;;
20976;SDS011;10647;51.016;3.720;2022-08-19T14:23:45;14.47;;;2.67;;
20976;SDS011;10647;51.016;3.720;2022-08-19T14:26:14;10.70;;;2.47;;
20976;SDS011;10647;51.016;3.720;2022-08-19T14:28:44;4.17;;;2.20;;
20976;SDS011;10647;51.016;3.720;2022-08-19T14:31:12;2.95;;;1.85;;
20976;SDS011;10647;51.016;3.720;2022-08-19T14:33:45;3.47;;;2.00;;
20976;SDS011;10647;51.016;3.720;2022-08-19T14:36:14;6.75;;;2.20;;
20976;SDS011;10647;51.016;3.720;2022-08-19T14:38:42;4.78;;;1.90;;
20976;SDS011;10647;51.016;3.720;2022-08-19T14:41:15;6.65;;;2.37;;
20976;SDS011;10647;51.016;3.720;2022-08-19T14:43:45;6.42;;;2.45;;
20976;SDS011;10647;51.016;3.720;2022-08-19T14:46:14;13.58;;;3.37;;
20976;SDS011;10647;51.016;3.720;2022-08-19T14:48:43;4.75;;;2.20;;
20976;SDS011;10647;51.016;3.720;2022-08-19T14:51:13;7.25;;;2.35;;
20976;SDS011;10647;51.016;3.720;2022-08-19T14:53:41;7.95;;;2.80;;
20976;SDS011;10647;51.016;3.720;2022-08-19T14:56:10;65.83;;;8.58;;
20976;SDS011;10647;51.016;3.720;2022-08-19T14:58:39;6.42;;;2.87;;